createdAt,value
2019-02-08T00:00:50.609Z,60.37
2019-02-08T00:03:18.787Z,91.50
2019-02-08T00:05:47.003Z,71.97
2019-02-08T00:08:15.142Z,69.10
2019-02-08T00:10:43.353Z,63.30
2019-02-08T00:13:11.498Z,58.67
2019-02-08T00:15:39.727Z,64.03
2019-02-08T00:18:08.090Z,87.97
2019-02-08T00:20:36.247Z,63.00
2019-02-08T00:23:04.526Z,65.37
2019-02-08T00:25:32.962Z,67.17
2019-02-08T00:28:01.284Z,91.67
2019-02-08T00:30:29.818Z,67.30
2019-02-08T00:32:58.104Z,64.00
2019-02-08T00:35:26.523Z,112.30
2019-02-08T00:37:55.119Z,62.93
2019-02-08T00:40:26.694Z,69.97
2019-02-08T00:42:56.490Z,68.17
2019-02-08T00:45:24.629Z,74.30
2019-02-08T00:47:52.806Z,85.63
2019-02-08T00:50:27.553Z,64.17
2019-02-08T00:52:56.178Z,63.87
2019-02-08T00:55:24.321Z,80.47
2019-02-08T00:57:52.682Z,66.23
2019-02-08T01:00:21.986Z,69.47
2019-02-08T01:02:51.043Z,73.43
2019-02-08T01:05:20.460Z,62.57
2019-02-08T01:07:49.072Z,71.80
2019-02-08T01:10:18.783Z,64.17
2019-02-08T01:12:46.929Z,85.10
2019-02-08T01:15:16.257Z,81.40
2019-02-08T01:17:44.397Z,73.73
2019-02-08T01:20:13.913Z,62.80
2019-02-08T01:22:42.312Z,62.47
2019-02-08T01:25:12.058Z,76.47
2019-02-08T01:27:40.305Z,57.50
2019-02-08T01:30:10.137Z,82.30
2019-02-08T01:32:38.290Z,85.17
2019-02-08T01:35:07.698Z,63.13
2019-02-08T01:37:35.992Z,59.10
2019-02-08T01:40:05.704Z,61.10
2019-02-08T01:42:33.887Z,65.67
2019-02-08T01:45:02.114Z,72.07
2019-02-08T01:47:30.288Z,63.07
2019-02-08T01:49:58.417Z,91.90
2019-02-08T01:52:26.772Z,62.07
2019-02-08T01:54:54.948Z,65.70
2019-02-08T01:57:23.089Z,84.10
2019-02-08T01:59:51.250Z,62.67
2019-02-08T02:02:19.400Z,70.80
2019-02-08T02:04:47.534Z,61.53
2019-02-08T02:07:15.713Z,64.57
2019-02-08T02:09:43.854Z,79.23
2019-02-08T02:12:11.993Z,70.40
2019-02-08T02:14:40.207Z,57.30
2019-02-08T02:17:08.343Z,63.17
2019-02-08T02:19:36.477Z,55.60
2019-02-08T02:22:05.020Z,58.70
2019-02-08T02:24:33.177Z,70.50
2019-02-08T02:27:01.310Z,74.33
2019-02-08T02:29:29.741Z,55.13
2019-02-08T02:31:57.874Z,58.83
2019-02-08T02:34:26.035Z,57.03
2019-02-08T02:36:54.419Z,58.10
2019-02-08T02:39:22.569Z,57.03
2019-02-08T02:41:50.691Z,54.70
2019-02-08T02:44:18.901Z,51.83
2019-02-08T02:46:47.019Z,43.03
2019-02-08T02:49:15.196Z,43.00
2019-02-08T02:51:43.402Z,49.67
2019-02-08T02:54:11.581Z,38.33
2019-02-08T02:56:39.721Z,48.50
2019-02-08T02:59:08.376Z,49.33
2019-02-08T03:01:36.582Z,43.40
2019-02-08T03:04:04.915Z,42.80
2019-02-08T03:06:33.863Z,38.70
2019-02-08T03:09:01.997Z,37.70
2019-02-08T03:11:30.156Z,47.00
2019-02-08T03:13:58.346Z,40.03
2019-02-08T03:16:26.493Z,36.57
2019-02-08T03:18:54.677Z,36.43
2019-02-08T03:21:22.967Z,36.03
2019-02-08T03:23:51.118Z,42.43
2019-02-08T03:26:19.305Z,41.33
2019-02-08T03:28:47.573Z,46.37
2019-02-08T03:31:15.805Z,39.53
2019-02-08T03:33:43.937Z,40.17
2019-02-08T03:36:12.137Z,45.90
2019-02-08T03:38:40.275Z,47.70
2019-02-08T03:41:08.463Z,37.20
2019-02-08T03:43:36.728Z,56.57
2019-02-08T03:46:04.981Z,39.30
2019-02-08T03:48:33.126Z,43.13
2019-02-08T03:51:01.386Z,57.33
2019-02-08T03:53:29.526Z,54.27
2019-02-08T03:55:58.758Z,57.60
2019-02-08T03:58:27.607Z,41.93
2019-02-08T04:03:31.318Z,49.07
2019-02-08T04:05:59.500Z,50.83
2019-02-08T04:08:27.645Z,56.27
2019-02-08T04:10:55.914Z,57.87
2019-02-08T04:13:24.049Z,74.33
2019-02-08T04:15:52.186Z,71.07
2019-02-08T04:18:20.588Z,81.40
2019-02-08T04:20:48.721Z,68.53
2019-02-08T04:23:16.945Z,78.60
2019-02-08T04:25:45.427Z,48.50
2019-02-08T04:28:13.550Z,66.53
2019-02-08T04:30:41.741Z,78.23
2019-02-08T04:33:10.229Z,58.87
2019-02-08T04:35:38.389Z,92.90
2019-02-08T04:38:06.598Z,61.93
2019-02-08T04:43:02.125Z,60.37
2019-02-08T04:45:30.258Z,61.23
2019-02-08T04:47:58.407Z,61.03
2019-02-08T04:50:27.184Z,64.27
2019-02-08T04:52:55.693Z,66.30
2019-02-08T04:55:23.833Z,73.57
2019-02-08T04:57:52.240Z,112.83
2019-02-08T05:00:24.729Z,76.13
2019-02-08T05:02:52.953Z,90.40
2019-02-08T05:05:21.342Z,73.03
2019-02-08T05:07:49.607Z,64.70
2019-02-08T05:10:22.289Z,91.90
2019-02-08T05:12:50.671Z,54.90
2019-02-08T05:15:18.986Z,109.80
2019-02-08T05:18:06.568Z,76.17
2019-02-08T05:20:35.150Z,61.87
2019-02-08T05:23:03.312Z,51.20
2019-02-08T05:25:50.950Z,54.13
2019-02-08T05:28:19.215Z,83.37
2019-02-08T05:30:47.313Z,63.27
2019-02-08T05:33:15.677Z,59.50
2019-02-08T05:35:43.806Z,66.27
2019-02-08T05:38:11.990Z,68.10
2019-02-08T05:40:40.279Z,56.33
2019-02-08T05:43:08.426Z,51.23
2019-02-08T05:45:36.611Z,66.80
2019-02-08T05:48:04.757Z,57.17
2019-02-08T05:50:32.979Z,44.57
2019-02-08T05:53:01.140Z,61.80
2019-02-08T05:55:30.204Z,57.57
2019-02-08T05:57:58.513Z,67.10
2019-02-08T06:00:29.869Z,89.37
2019-02-08T06:02:58.077Z,51.40
2019-02-08T06:05:26.352Z,61.43
2019-02-08T06:07:54.524Z,62.93
2019-02-08T06:10:22.850Z,73.43
2019-02-08T06:12:51.029Z,61.63
2019-02-08T06:15:20.734Z,56.77
2019-02-08T06:17:48.898Z,68.37
2019-02-08T06:20:18.329Z,86.70
2019-02-08T06:22:46.652Z,98.73
2019-02-08T06:25:15.887Z,97.60
2019-02-08T06:27:44.315Z,64.20
2019-02-08T06:30:19.997Z,67.23
2019-02-08T06:32:48.097Z,62.03
2019-02-08T06:35:17.205Z,66.23
2019-02-08T06:37:45.534Z,58.87
2019-02-08T06:40:15.245Z,70.67
2019-02-08T06:42:43.392Z,92.60
2019-02-08T06:45:13.383Z,73.23
2019-02-08T06:47:41.497Z,63.83
2019-02-08T06:50:11.279Z,90.87
2019-02-08T06:52:39.607Z,90.57
2019-02-08T06:55:11.010Z,96.43
2019-02-08T06:57:39.816Z,73.60
2019-02-08T07:00:10.481Z,61.33
2019-02-08T07:02:42.776Z,64.57
2019-02-08T07:05:18.239Z,60.13
2019-02-08T07:07:48.033Z,54.67
2019-02-08T07:10:20.257Z,78.80
2019-02-08T07:13:04.882Z,51.07
2019-02-08T07:15:34.617Z,75.43
2019-02-08T07:18:04.338Z,87.67
2019-02-08T07:20:34.315Z,55.83
2019-02-08T07:23:12.777Z,58.57
2019-02-08T07:25:42.569Z,77.70
2019-02-08T07:28:18.310Z,53.30
2019-02-08T07:30:50.742Z,52.37
2019-02-08T07:33:23.043Z,62.53
2019-02-08T07:35:58.683Z,62.77
2019-02-08T07:38:37.223Z,96.47
2019-02-08T07:41:22.198Z,59.50
2019-02-08T07:44:04.405Z,55.67
2019-02-08T07:46:34.914Z,56.03
2019-02-08T07:49:04.714Z,53.00
2019-02-08T07:51:34.650Z,52.33
2019-02-08T07:54:07.067Z,58.37
2019-02-08T07:56:53.009Z,53.93
2019-02-08T07:59:23.633Z,58.10
2019-02-08T08:01:59.029Z,63.20
2019-02-08T08:04:45.153Z,64.63
2019-02-08T08:07:14.990Z,64.57
2019-02-08T08:09:44.849Z,55.53
2019-02-08T08:12:17.798Z,63.33
2019-02-08T08:14:56.645Z,57.33
2019-02-08T08:17:35.145Z,56.67
2019-02-08T08:20:12.053Z,55.03
2019-02-08T08:22:48.056Z,57.00
2019-02-08T08:25:34.159Z,46.37
2019-02-08T08:28:07.946Z,49.87
2019-02-08T08:30:38.153Z,53.60
2019-02-08T08:33:09.494Z,44.07
2019-02-08T08:35:42.122Z,44.77
2019-02-08T08:38:26.571Z,53.23
2019-02-08T08:40:56.290Z,44.40
2019-02-08T08:43:26.006Z,44.43
2019-02-08T08:46:12.315Z,42.93
2019-02-08T08:48:57.148Z,57.13
2019-02-08T08:51:29.583Z,44.53
2019-02-08T08:54:08.012Z,44.27
2019-02-08T08:56:37.967Z,42.13
2019-02-08T08:59:23.991Z,49.13
2019-02-08T09:02:02.131Z,43.17
2019-02-08T09:04:31.849Z,44.23
2019-02-08T09:07:16.410Z,47.37
2019-02-08T09:09:45.074Z,46.27
2019-02-08T09:12:17.330Z,40.17
2019-02-08T09:14:47.022Z,41.10
2019-02-08T09:17:19.369Z,43.90
2019-02-08T09:19:54.670Z,50.47
2019-02-08T09:22:24.341Z,42.30
2019-02-08T09:24:57.095Z,46.10
2019-02-08T09:27:26.809Z,45.87
2019-02-08T09:30:00.388Z,44.70
2019-02-08T09:32:30.343Z,45.77
2019-02-08T09:35:16.737Z,43.97
2019-02-08T09:37:46.409Z,49.10
2019-02-08T09:40:34.322Z,45.03
2019-02-08T09:43:06.898Z,43.50
2019-02-08T09:45:36.595Z,53.10
2019-02-08T09:48:06.318Z,52.17
2019-02-08T09:50:39.896Z,43.23
2019-02-08T09:53:26.246Z,51.97
2019-02-08T09:56:12.478Z,46.33
2019-02-08T09:58:47.823Z,45.43
2019-02-08T10:01:34.321Z,48.17
2019-02-08T10:04:20.653Z,42.13
2019-02-08T10:07:06.818Z,47.40
2019-02-08T10:09:36.555Z,45.30
2019-02-08T10:12:06.280Z,43.00
2019-02-08T10:14:35.992Z,43.30
2019-02-08T10:17:11.880Z,52.77
2019-02-08T10:19:58.173Z,46.50
2019-02-08T10:22:28.082Z,45.03
2019-02-08T10:25:14.082Z,47.83
2019-02-08T10:27:43.885Z,44.53
2019-02-08T10:30:13.600Z,55.77
2019-02-08T10:33:00.533Z,50.53
2019-02-08T10:35:30.202Z,40.93
2019-02-08T10:38:05.625Z,42.97
2019-02-08T10:40:35.319Z,46.00
2019-02-08T10:43:20.204Z,46.40
2019-02-08T10:45:49.874Z,44.43
2019-02-08T10:48:22.630Z,43.70
2019-02-08T10:51:08.534Z,42.67
2019-02-08T10:53:53.443Z,38.60
2019-02-08T10:56:23.478Z,37.70
2019-02-08T10:58:53.192Z,36.50
2019-02-08T11:01:25.878Z,39.13
2019-02-08T11:03:55.728Z,36.67
2019-02-08T11:06:42.028Z,45.70
2019-02-08T11:09:26.717Z,39.33
2019-02-08T11:12:08.538Z,39.90
2019-02-08T11:14:55.030Z,34.60
2019-02-08T11:17:36.807Z,35.43
2019-02-08T11:20:06.550Z,32.33
2019-02-08T11:22:34.710Z,38.57
2019-02-08T11:25:04.164Z,39.60
2019-02-08T11:27:32.354Z,35.50
2019-02-08T11:30:00.510Z,38.60
2019-02-08T11:32:42.860Z,37.50
2019-02-08T11:34:58.941Z,32.27
2019-02-08T11:37:27.086Z,31.07
2019-02-08T11:39:55.205Z,33.60
2019-02-08T11:42:23.406Z,31.80
2019-02-08T11:44:51.641Z,32.97
2019-02-08T11:47:19.820Z,35.00
2019-02-08T11:49:48.377Z,38.07
2019-02-08T11:52:16.517Z,34.77
2019-02-08T11:54:44.738Z,41.10
2019-02-08T11:57:12.922Z,41.80
2019-02-08T11:59:41.061Z,41.63
2019-02-08T12:02:09.211Z,42.40
2019-02-08T12:04:37.506Z,46.77
2019-02-08T12:07:05.714Z,50.20
2019-02-08T12:09:33.873Z,44.93
2019-02-08T12:12:02.136Z,49.20
2019-02-08T12:14:30.619Z,43.97
2019-02-08T12:16:58.819Z,45.60
2019-02-08T12:19:27.068Z,40.00
2019-02-08T12:21:56.115Z,41.53
2019-02-08T12:27:02.194Z,36.63
2019-02-08T12:29:30.404Z,35.60
2019-02-08T12:31:58.549Z,38.80
2019-02-08T12:34:26.878Z,28.37
2019-02-08T12:36:55.022Z,31.20
2019-02-08T12:39:23.182Z,33.97
2019-02-08T12:42:10.727Z,30.03
2019-02-08T12:47:52.154Z,27.10
2019-02-08T12:50:20.355Z,28.87
2019-02-08T12:52:48.511Z,29.63
2019-02-08T12:55:36.148Z,28.50
2019-02-08T12:58:04.359Z,28.67
2019-02-08T13:00:51.920Z,29.20
2019-02-08T13:03:20.189Z,27.40
2019-02-08T13:05:48.346Z,31.33
2019-02-08T13:08:16.568Z,37.37
2019-02-08T13:10:44.761Z,46.63
2019-02-08T13:13:12.890Z,42.10
2019-02-08T13:15:41.061Z,44.73
2019-02-08T13:18:09.205Z,46.00
2019-02-08T13:20:37.346Z,45.00
2019-02-08T13:23:05.608Z,41.43
2019-02-08T13:25:33.751Z,42.30
2019-02-08T13:28:01.886Z,39.50
2019-02-08T13:30:50.932Z,46.57
2019-02-08T13:33:38.414Z,39.97
2019-02-08T13:36:08.385Z,38.93
2019-02-08T13:38:36.522Z,34.07
2019-02-08T13:41:24.098Z,35.60
2019-02-08T13:43:52.290Z,40.90
2019-02-08T13:46:20.452Z,36.03
2019-02-08T13:48:48.758Z,31.27
2019-02-08T13:51:16.910Z,35.50
2019-02-08T13:53:45.022Z,30.43
2019-02-08T13:56:13.305Z,34.27
2019-02-08T13:58:41.451Z,34.93
2019-02-08T14:01:09.553Z,39.90
2019-02-08T14:03:37.723Z,32.03
2019-02-08T14:06:05.993Z,33.50
2019-02-08T14:08:34.137Z,28.20
2019-02-08T14:11:02.430Z,27.80
2019-02-08T14:13:30.526Z,31.93
2019-02-08T14:15:58.684Z,27.67
2019-02-08T14:18:26.808Z,29.63
2019-02-08T14:20:54.944Z,32.03
2019-02-08T14:23:23.029Z,32.33
2019-02-08T14:25:51.397Z,31.63
2019-02-08T14:28:19.541Z,29.17
2019-02-08T14:30:47.681Z,27.93
2019-02-08T14:33:16.174Z,28.23
2019-02-08T14:36:03.736Z,25.97
2019-02-08T14:41:32.374Z,23.37
2019-02-08T14:44:00.556Z,20.57
2019-02-08T14:46:28.697Z,21.73
2019-02-08T14:48:57.647Z,19.37
2019-02-08T14:51:25.840Z,20.43
2019-02-08T14:54:13.645Z,22.23
2019-02-08T14:56:41.790Z,22.83
2019-02-08T14:59:09.931Z,21.73
2019-02-08T15:01:38.090Z,23.93
2019-02-08T15:04:07.582Z,26.70
2019-02-08T15:06:36.054Z,23.77
2019-02-08T15:09:24.056Z,27.27
2019-02-08T15:12:17.669Z,24.57
2019-02-08T15:14:46.153Z,27.17
2019-02-08T15:17:33.630Z,25.77
2019-02-08T15:20:01.804Z,28.20
2019-02-08T15:22:29.951Z,28.30
2019-02-08T15:24:58.124Z,27.90
2019-02-08T15:27:26.290Z,27.70
2019-02-08T15:29:54.445Z,28.57
2019-02-08T15:32:22.590Z,26.57
2019-02-08T15:34:50.946Z,30.10
2019-02-08T15:37:19.798Z,26.43
2019-02-08T15:39:47.933Z,28.67
2019-02-08T15:42:16.295Z,29.40
2019-02-08T15:44:44.430Z,30.83
2019-02-08T15:47:12.651Z,28.27
2019-02-08T15:49:40.905Z,28.57
2019-02-08T15:52:09.038Z,26.47
2019-02-08T15:54:37.190Z,28.27
2019-02-08T15:57:05.466Z,23.63
2019-02-08T15:59:33.667Z,26.37
2019-02-08T16:02:21.342Z,24.50
2019-02-08T16:04:49.691Z,27.17
2019-02-08T16:07:17.826Z,25.03
2019-02-08T16:09:46.282Z,23.40
2019-02-08T16:12:14.460Z,23.73
2019-02-08T16:14:42.574Z,24.83
2019-02-08T16:17:11.141Z,24.93
2019-02-08T16:19:58.670Z,23.60
2019-02-08T16:22:27.030Z,24.77
2019-02-08T16:24:55.218Z,27.47
2019-02-08T16:27:23.366Z,25.47
2019-02-08T16:29:51.529Z,23.73
2019-02-08T16:32:19.716Z,27.07
2019-02-08T16:34:47.830Z,24.03
2019-02-08T16:37:16.098Z,27.00
2019-02-08T16:39:44.338Z,25.70
2019-02-08T16:42:12.535Z,28.77
2019-02-08T16:44:40.694Z,25.30
2019-02-08T16:47:08.914Z,24.03
2019-02-08T16:49:37.040Z,27.40
2019-02-08T16:52:05.402Z,33.80
2019-02-08T16:54:52.946Z,29.93
2019-02-08T16:57:21.309Z,26.20
2019-02-08T16:59:49.442Z,27.23
2019-02-08T17:02:36.938Z,27.10
2019-02-08T17:05:06.633Z,26.07
2019-02-08T17:07:34.756Z,26.97
2019-02-08T17:10:05.084Z,27.00
2019-02-08T17:12:33.196Z,28.27
2019-02-08T17:15:01.331Z,30.53
2019-02-08T17:17:29.561Z,25.50
2019-02-08T17:19:57.686Z,30.33
2019-02-08T17:22:25.837Z,30.50
2019-02-08T17:24:54.001Z,32.63
2019-02-08T17:27:22.173Z,28.63
2019-02-08T17:29:50.369Z,26.57
2019-02-08T17:32:18.494Z,26.33
2019-02-08T17:34:46.666Z,22.53
2019-02-08T17:37:14.770Z,26.23
2019-02-08T17:39:43.143Z,33.10
2019-02-08T17:42:11.245Z,26.30
2019-02-08T17:44:39.374Z,25.67
2019-02-08T17:47:07.518Z,28.37
2019-02-08T17:49:54.971Z,27.90
2019-02-08T17:52:23.402Z,31.43
2019-02-08T17:54:51.514Z,38.03
2019-02-08T17:57:19.626Z,29.27
2019-02-08T17:59:47.990Z,28.03
2019-02-08T18:02:16.134Z,35.17
2019-02-08T18:04:44.225Z,32.10
2019-02-08T18:07:12.481Z,27.30
2019-02-08T18:09:40.598Z,35.23
2019-02-08T18:12:08.714Z,28.87
2019-02-08T18:14:36.863Z,27.53
2019-02-08T18:17:04.974Z,35.97
2019-02-08T18:19:33.075Z,34.67
2019-02-08T18:22:01.338Z,37.47
2019-02-08T18:24:29.492Z,27.20
2019-02-08T18:26:57.610Z,26.80
2019-02-08T18:29:25.740Z,33.83
2019-02-08T18:31:53.878Z,27.93
2019-02-08T18:34:21.986Z,32.33
2019-02-08T18:36:50.225Z,27.67
2019-02-08T18:39:18.325Z,26.33
2019-02-08T18:41:46.441Z,26.70
2019-02-08T18:44:14.873Z,32.57
2019-02-08T18:46:42.994Z,31.70
2019-02-08T18:49:11.162Z,33.93
2019-02-08T18:51:39.589Z,39.17
2019-02-08T18:54:07.999Z,27.37
2019-02-08T18:56:36.145Z,27.07
2019-02-08T18:59:04.413Z,34.93
2019-02-08T19:01:32.568Z,40.33
2019-02-08T19:04:00.746Z,34.20
2019-02-08T19:06:29.014Z,35.60
2019-02-08T19:08:57.177Z,34.00
2019-02-08T19:11:25.290Z,36.07
2019-02-08T19:13:53.680Z,28.97
2019-02-08T19:16:21.914Z,35.77
2019-02-08T19:18:50.111Z,36.23
2019-02-08T19:21:18.410Z,34.13
2019-02-08T19:23:46.553Z,29.23
2019-02-08T19:26:14.654Z,37.13
2019-02-08T19:28:42.928Z,31.40
2019-02-08T19:31:11.309Z,39.90
2019-02-08T19:33:39.431Z,35.50
2019-02-08T19:36:07.703Z,33.60
2019-02-08T19:38:35.902Z,34.97
2019-02-08T19:41:04.110Z,26.20
2019-02-08T19:43:32.309Z,25.47
2019-02-08T19:46:00.518Z,29.20
2019-02-08T19:48:28.621Z,24.60
2019-02-08T19:50:56.875Z,24.67
2019-02-08T19:53:25.040Z,23.53
2019-02-08T19:55:53.184Z,30.33
2019-02-08T19:58:21.413Z,28.47
2019-02-08T20:00:49.542Z,30.13
2019-02-08T20:03:17.641Z,25.53
2019-02-08T20:05:46.021Z,30.83
2019-02-08T20:08:14.307Z,27.80
2019-02-08T20:10:43.569Z,26.77
2019-02-08T20:13:11.869Z,25.60
2019-02-08T20:15:39.988Z,26.03
2019-02-08T20:18:08.287Z,25.63
2019-02-08T20:20:36.588Z,21.67
2019-02-08T20:23:05.560Z,22.37
2019-02-08T20:25:34.378Z,30.10
2019-02-08T20:28:02.658Z,22.83
2019-02-08T20:30:31.306Z,22.73
2019-02-08T20:32:59.682Z,26.77
2019-02-08T20:35:28.257Z,28.43
2019-02-08T20:37:59.766Z,30.27
2019-02-08T20:40:29.423Z,29.57
2019-02-08T20:42:57.594Z,27.40
2019-02-08T20:45:40.533Z,24.57
2019-02-08T20:48:13.236Z,23.37
2019-02-08T20:50:41.397Z,21.90
2019-02-08T20:53:09.703Z,24.27
2019-02-08T20:55:38.153Z,23.43
2019-02-08T20:58:07.648Z,25.20
2019-02-08T21:00:37.274Z,26.97
2019-02-08T21:03:07.596Z,24.33
2019-02-08T21:05:35.771Z,20.93
2019-02-08T21:08:04.943Z,33.27
2019-02-08T21:10:33.170Z,28.87
2019-02-08T21:13:01.341Z,22.30
2019-02-08T21:15:29.470Z,27.37
2019-02-08T21:17:57.641Z,24.03
2019-02-08T21:20:25.816Z,24.30
2019-02-08T21:22:53.922Z,25.03
2019-02-08T21:25:23.660Z,26.57
2019-02-08T21:27:51.770Z,31.97
2019-02-08T21:30:19.886Z,26.73
2019-02-08T21:32:48.104Z,25.77
2019-02-08T21:35:17.511Z,24.53
2019-02-08T21:37:45.697Z,27.50
2019-02-08T21:40:15.710Z,24.17
2019-02-08T21:42:43.891Z,27.10
2019-02-08T21:45:16.470Z,26.53
2019-02-08T21:47:45.059Z,25.70
2019-02-08T21:50:15.115Z,24.63
2019-02-08T21:52:43.353Z,25.23
2019-02-08T21:55:13.185Z,26.87
2019-02-08T21:57:41.333Z,24.00
2019-02-08T22:00:14.005Z,29.17
2019-02-08T22:02:42.150Z,24.97
2019-02-08T22:05:10.462Z,29.93
2019-02-08T22:07:38.581Z,32.37
2019-02-08T22:10:08.557Z,23.50
2019-02-08T22:12:36.689Z,24.93
2019-02-08T22:15:09.272Z,38.07
2019-02-08T22:17:37.825Z,30.60
2019-02-08T22:20:07.483Z,25.00
2019-02-08T22:22:35.609Z,30.97
2019-02-08T22:25:05.614Z,29.27
2019-02-08T22:27:33.723Z,26.03
2019-02-08T22:30:01.838Z,26.33
2019-02-08T22:32:30.010Z,28.60
2019-02-08T22:34:58.181Z,35.70
2019-02-08T22:37:26.328Z,24.27
2019-02-08T22:39:54.477Z,22.33
2019-02-08T22:42:22.587Z,24.77
2019-02-08T22:44:50.694Z,29.27
2019-02-08T22:47:18.998Z,27.20
2019-02-08T22:49:47.161Z,27.70
2019-02-08T22:52:15.328Z,27.93
2019-02-08T22:54:43.754Z,23.53
2019-02-08T22:57:11.881Z,23.03
2019-02-08T22:59:39.990Z,20.93
2019-02-08T23:02:08.634Z,21.47
2019-02-08T23:04:36.738Z,21.60
2019-02-08T23:07:05.026Z,22.60
2019-02-08T23:09:33.332Z,26.03
2019-02-08T23:12:01.429Z,20.33
2019-02-08T23:14:29.533Z,19.83
2019-02-08T23:16:57.698Z,22.50
2019-02-08T23:19:25.878Z,22.57
2019-02-08T23:21:55.217Z,26.73
2019-02-08T23:24:23.679Z,26.70
2019-02-08T23:26:51.788Z,21.13
2019-02-08T23:29:19.863Z,22.20
2019-02-08T23:31:48.236Z,20.90
2019-02-08T23:34:16.329Z,19.27
2019-02-08T23:36:44.438Z,22.60
2019-02-08T23:39:12.992Z,23.97
2019-02-08T23:41:41.072Z,22.50
2019-02-08T23:44:09.166Z,20.57
2019-02-08T23:46:37.302Z,20.70
2019-02-08T23:49:05.390Z,21.43
2019-02-08T23:51:33.528Z,19.30
2019-02-08T23:54:01.762Z,23.00
2019-02-08T23:56:29.898Z,20.77
2019-02-08T23:58:58.146Z,22.47
